Paynesville, Minnesota
Current Conditions -  °F | °C
As of 7:34 PM on Wednesday 22 Oct 2014 (Local Time) from KPEX Reporting Station
Overcast Overcast  
Wind Chill: 57°   Ceiling: 6000
Heat Index: 57°   Visibility: 10mi
Dew Point: 43°   Wind: 10mph
Humidity: 59%   Direction: 100°E
Pressure: 29.98"   Gusts: 18mph
Location:  45.38°N, 94.71°W
Report Text: KPEX 230034Z AUTO 10009G16KT 10SM OVC060 14/06 A2998 RMK AO2 T01410063
Loading
Personal Weather Stations






























Interactive Weather Map
Tropical Storm Tracking
New forecast layout! Learn more

10-Day Weather Forecast

Advertisements
Track Severe Weather on mobile